createdAt,value
2018-07-26T15:14:25.895Z,30.95
2018-07-26T15:15:04.884Z,30.98
2018-07-26T15:16:58.919Z,30.99
2018-07-26T15:17:58.901Z,30.93
2018-07-26T15:19:52.045Z,30.99
2018-07-26T15:20:52.038Z,30.99
2018-07-26T15:22:44.935Z,30.99
2018-07-26T15:23:44.921Z,30.95
2018-07-26T15:25:37.804Z,30.86
2018-07-26T15:26:37.796Z,30.99
2018-07-26T15:27:37.794Z,30.91
2018-07-26T15:28:37.791Z,30.96
2018-07-26T15:29:37.789Z,30.92
2018-07-26T15:30:37.782Z,30.96
2018-07-26T15:31:37.778Z,31.04
2018-07-26T15:32:37.778Z,31.04
2018-07-26T15:33:37.772Z,30.98
2018-07-26T15:34:37.769Z,30.98
2018-07-26T15:35:37.764Z,30.91
2018-07-26T15:36:37.768Z,30.89
2018-07-26T15:37:37.789Z,31.02
2018-07-26T15:38:37.757Z,30.86
2018-07-26T15:39:37.752Z,30.95
2018-07-26T15:40:37.749Z,30.89
2018-07-26T15:41:37.752Z,30.99
2018-07-26T15:42:37.745Z,30.93
2018-07-26T15:43:37.747Z,30.93
2018-07-26T15:44:37.783Z,30.95
2018-07-26T15:45:37.735Z,30.93
2018-07-26T15:46:37.736Z,30.99
2018-07-26T15:47:37.724Z,30.98
2018-07-26T15:48:37.727Z,30.99
2018-07-26T15:49:37.725Z,31.00
2018-07-26T15:50:37.719Z,31.02
2018-07-26T15:51:37.718Z,30.99
2018-07-26T15:52:37.710Z,30.99
2018-07-26T15:53:37.708Z,30.96
2018-07-26T15:54:37.707Z,31.04
2018-07-26T15:55:37.762Z,31.04
2018-07-26T15:56:37.701Z,30.93
2018-07-26T15:57:37.699Z,30.95
2018-07-26T15:58:37.700Z,30.93
2018-07-26T15:59:37.689Z,31.04
2018-07-26T16:00:37.686Z,30.92
2018-07-26T16:01:37.683Z,30.93
2018-07-26T16:02:37.681Z,30.96
2018-07-26T16:03:37.742Z,30.93
2018-07-26T16:04:37.674Z,30.92
2018-07-26T16:05:37.671Z,30.88
2018-07-26T16:06:37.668Z,30.91
2018-07-26T16:07:37.662Z,30.91
2018-07-26T16:08:37.660Z,30.99
2018-07-26T16:09:37.659Z,30.96
2018-07-26T16:10:37.656Z,30.93
2018-07-26T16:11:37.654Z,30.93
2018-07-26T16:12:37.648Z,30.91
2018-07-26T16:13:37.648Z,30.89
2018-07-26T16:14:37.648Z,30.95
2018-07-26T16:15:37.639Z,30.89
2018-07-26T16:16:37.638Z,30.85
2018-07-26T16:17:37.722Z,30.89
2018-07-26T16:18:37.630Z,30.89
2018-07-26T16:19:37.623Z,30.88
2018-07-26T16:20:37.623Z,30.93
2018-07-26T16:21:37.618Z,30.96
2018-07-26T16:22:37.616Z,30.86
2018-07-26T16:23:37.610Z,30.96
2018-07-26T16:24:37.610Z,30.78
2018-07-26T16:25:37.611Z,30.89
2018-07-26T16:26:37.608Z,30.85
2018-07-26T16:27:37.603Z,30.77
2018-07-26T16:28:37.640Z,30.73
2018-07-26T16:29:37.596Z,30.77
2018-07-26T16:30:37.591Z,30.73
2018-07-26T16:31:37.587Z,30.78
2018-07-26T16:32:37.585Z,30.78
2018-07-26T16:33:37.582Z,30.78
2018-07-26T16:34:37.582Z,30.76
2018-07-26T16:35:37.576Z,30.77
2018-07-26T16:36:37.574Z,30.80
2018-07-26T16:37:37.570Z,30.74
2018-07-26T16:38:37.564Z,30.81
2018-07-26T16:39:37.564Z,30.78
2018-07-26T16:40:37.583Z,30.76
2018-07-26T16:41:37.557Z,30.76
2018-07-26T16:42:37.555Z,30.76
2018-07-26T16:43:37.548Z,30.78
2018-07-26T16:44:37.546Z,30.81
2018-07-26T16:45:37.544Z,30.77
2018-07-26T16:46:37.542Z,30.78
2018-07-26T16:47:37.530Z,30.77
2018-07-26T16:48:37.536Z,30.67
2018-07-26T16:49:37.530Z,30.83
2018-07-26T16:50:37.526Z,30.77
2018-07-26T16:51:37.524Z,30.71
2018-07-26T16:52:37.519Z,30.73
2018-07-26T16:53:37.521Z,30.71
2018-07-26T16:54:37.520Z,30.78
2018-07-26T16:55:37.510Z,30.65
2018-07-26T16:56:37.509Z,30.70
2018-07-26T16:57:37.531Z,30.70
2018-07-26T16:58:37.585Z,30.69
2018-07-26T16:59:37.496Z,30.65
2018-07-26T17:00:37.497Z,30.67
2018-07-26T17:01:37.491Z,30.73
2018-07-26T17:02:37.487Z,30.76
2018-07-26T17:03:37.484Z,30.76
2018-07-26T17:04:37.481Z,30.69
2018-07-26T17:05:37.477Z,30.70
2018-07-26T17:06:37.475Z,30.71
2018-07-26T17:07:37.476Z,30.69
2018-07-26T17:08:37.467Z,30.70
2018-07-26T17:09:37.466Z,30.65
2018-07-26T17:10:37.473Z,30.69
2018-07-26T17:11:37.458Z,30.63
2018-07-26T17:12:37.455Z,30.71
2018-07-26T17:13:37.503Z,30.62
2018-07-26T17:14:37.450Z,30.65
2018-07-26T17:15:37.445Z,30.65
2018-07-26T17:16:37.441Z,30.65
2018-07-26T17:17:37.443Z,30.63
2018-07-26T17:18:37.464Z,30.61
2018-07-26T17:19:37.440Z,30.69
2018-07-26T17:20:37.429Z,30.63
2018-07-26T17:21:37.430Z,30.58
2018-07-26T17:22:37.423Z,30.63
2018-07-26T17:23:37.445Z,30.61
2018-07-26T17:24:37.416Z,30.58
2018-07-26T17:25:37.416Z,30.63
2018-07-26T17:26:37.409Z,30.58
2018-07-26T17:27:37.404Z,30.63
2018-07-26T17:28:37.405Z,30.59
2018-07-26T17:29:37.402Z,30.59
2018-07-26T17:30:37.399Z,30.58
2018-07-26T17:31:37.391Z,30.61
2018-07-26T17:32:37.388Z,30.61
2018-07-26T17:33:37.387Z,30.56
2018-07-26T17:34:37.385Z,30.61
2018-07-26T17:35:37.423Z,30.61
2018-07-26T17:36:37.376Z,30.58
2018-07-26T17:37:37.376Z,30.63
2018-07-26T17:38:37.370Z,30.54
2018-07-26T17:39:37.365Z,30.54
2018-07-26T17:40:37.363Z,30.62
2018-07-26T17:41:37.359Z,30.62
2018-07-26T17:42:37.356Z,30.62
2018-07-26T17:43:37.367Z,30.55
2018-07-26T17:44:37.348Z,30.58
2018-07-26T17:45:37.366Z,30.58
2018-07-26T17:46:37.344Z,30.58
2018-07-26T17:47:37.340Z,30.59
2018-07-26T17:48:37.339Z,30.61
2018-07-26T17:49:37.335Z,30.61
2018-07-26T17:50:37.329Z,30.62
2018-07-26T17:51:37.326Z,30.62
2018-07-26T17:52:37.328Z,30.61
2018-07-26T17:53:37.321Z,30.56
2018-07-26T17:54:37.318Z,30.62
2018-07-26T17:55:37.313Z,30.56
2018-07-26T17:56:37.358Z,30.55
2018-07-26T17:57:37.306Z,30.59
2018-07-26T17:58:37.305Z,30.62
2018-07-26T17:59:37.299Z,30.56
2018-07-26T18:00:37.294Z,30.58
2018-07-26T18:01:37.292Z,30.55
2018-07-26T18:02:37.293Z,30.58
2018-07-26T18:03:37.286Z,30.58
2018-07-26T18:04:37.353Z,30.55
2018-07-26T18:05:37.283Z,30.58
2018-07-26T18:06:37.276Z,30.58
2018-07-26T18:07:37.271Z,30.56
2018-07-26T18:08:37.269Z,30.59
2018-07-26T18:09:37.267Z,30.61
2018-07-26T18:10:37.263Z,30.55
2018-07-26T18:11:37.258Z,30.56
2018-07-26T18:12:37.254Z,30.54
2018-07-26T18:13:37.250Z,30.61
2018-07-26T18:14:37.248Z,30.56
2018-07-26T18:15:37.249Z,30.54
2018-07-26T18:16:37.251Z,30.56
2018-07-26T18:17:37.237Z,30.54
2018-07-26T18:18:37.238Z,30.48
2018-07-26T18:19:37.234Z,30.59
2018-07-26T18:20:37.228Z,30.54
2018-07-26T18:21:37.227Z,30.61
2018-07-26T18:22:37.221Z,30.49
2018-07-26T18:23:37.219Z,30.48
2018-07-26T18:24:37.221Z,30.56
2018-07-26T18:25:37.248Z,30.58
2018-07-26T18:26:37.209Z,30.55
2018-07-26T18:27:37.206Z,30.55
2018-07-26T18:28:37.203Z,30.55
2018-07-26T18:29:37.201Z,30.51
2018-07-26T18:30:37.196Z,30.52
2018-07-26T18:31:37.276Z,30.51
2018-07-26T18:32:37.188Z,30.51
2018-07-26T18:33:37.185Z,30.51
2018-07-26T18:34:37.188Z,30.48
2018-07-26T18:35:37.227Z,30.54
2018-07-26T18:36:37.173Z,30.52
2018-07-26T18:37:37.170Z,30.46
2018-07-26T18:38:37.167Z,30.51
2018-07-26T18:39:37.162Z,30.54
2018-07-26T18:40:37.162Z,30.55
2018-07-26T18:41:37.166Z,30.49
2018-07-26T18:42:37.156Z,30.49
2018-07-26T18:43:37.160Z,30.51
2018-07-26T18:44:37.152Z,30.55
2018-07-26T18:45:37.143Z,30.44
2018-07-26T18:46:37.146Z,30.40
2018-07-26T18:47:37.135Z,30.48
2018-07-26T18:48:37.133Z,30.44
2018-07-26T18:49:37.167Z,30.52
2018-07-26T18:50:37.127Z,30.54
2018-07-26T18:51:37.123Z,30.38
2018-07-26T18:52:37.165Z,30.51
2018-07-26T18:53:37.115Z,30.52
2018-07-26T18:54:37.116Z,30.52
2018-07-26T18:55:37.115Z,30.36
2018-07-26T18:56:37.105Z,30.36
2018-07-26T18:57:37.102Z,30.39
2018-07-26T18:58:37.102Z,30.32
2018-07-26T18:59:37.095Z,30.43
2018-07-26T19:00:37.091Z,30.39
2018-07-26T19:01:37.088Z,30.38
2018-07-26T19:02:37.085Z,30.35
2018-07-26T19:03:37.080Z,30.39
2018-07-26T19:04:37.080Z,30.38
2018-07-26T19:05:37.072Z,30.35
2018-07-26T19:06:37.071Z,30.33
2018-07-26T19:07:37.070Z,30.38
2018-07-26T19:08:37.099Z,30.38
2018-07-26T19:09:37.064Z,30.44
2018-07-26T19:10:37.059Z,30.36
2018-07-26T19:11:37.053Z,30.38
2018-07-26T19:12:37.050Z,30.35
2018-07-26T19:13:37.047Z,30.33
2018-07-26T19:14:37.043Z,30.32
2018-07-26T19:15:37.040Z,30.40
2018-07-26T19:16:37.037Z,30.33
2018-07-26T19:17:37.038Z,30.31
2018-07-26T19:18:37.029Z,30.35
2018-07-26T19:19:37.022Z,30.32
2018-07-26T19:20:37.021Z,30.27
2018-07-26T19:21:37.026Z,30.31
2018-07-26T19:22:37.025Z,30.33
2018-07-26T19:23:37.015Z,30.31
2018-07-26T19:24:37.014Z,30.27
2018-07-26T19:25:37.005Z,30.33
2018-07-26T19:26:37.003Z,30.29
2018-07-26T19:27:36.997Z,30.24
2018-07-26T19:28:36.993Z,30.29
2018-07-26T19:29:36.988Z,30.31
2018-07-26T19:30:36.987Z,30.27
2018-07-26T19:31:36.982Z,30.24
2018-07-26T19:32:36.979Z,30.33
2018-07-26T19:33:36.978Z,30.21
2018-07-26T19:34:36.975Z,30.29
2018-07-26T19:35:36.977Z,30.29
2018-07-26T19:36:36.965Z,30.31
2018-07-26T19:37:36.963Z,30.29
2018-07-26T19:38:36.968Z,30.24
2018-07-26T19:39:36.955Z,30.27
2018-07-26T19:40:36.957Z,30.20
2018-07-26T19:41:36.949Z,30.24
2018-07-26T19:42:36.943Z,30.23
2018-07-26T19:43:36.943Z,30.23
2018-07-26T19:44:36.940Z,30.23
2018-07-26T19:45:36.935Z,30.10
2018-07-26T19:46:36.932Z,30.23
2018-07-26T19:47:36.928Z,30.11
2018-07-26T19:48:36.923Z,30.11
2018-07-26T19:49:36.918Z,30.11
2018-07-26T19:50:36.920Z,30.11
2018-07-26T19:51:36.911Z,30.20
2018-07-26T19:52:36.910Z,30.18
2018-07-26T19:53:36.911Z,30.08
2018-07-26T19:54:36.903Z,30.17
2018-07-26T19:55:36.897Z,30.11
2018-07-26T19:56:36.893Z,30.20
2018-07-26T19:57:36.890Z,30.13
2018-07-26T19:58:36.885Z,30.16
2018-07-26T19:59:36.883Z,30.13
2018-07-26T20:00:36.881Z,30.18
2018-07-26T20:01:36.876Z,30.17
2018-07-26T20:02:36.874Z,30.06
2018-07-26T20:03:36.869Z,30.14
2018-07-26T20:04:36.863Z,30.21
2018-07-26T20:05:36.861Z,30.13
2018-07-26T20:06:36.861Z,30.11
2018-07-26T20:07:36.858Z,30.13
2018-07-26T20:08:36.854Z,30.11
2018-07-26T20:09:36.856Z,30.14
2018-07-26T20:10:36.846Z,30.06
2018-07-26T20:11:37.663Z,30.10
2018-07-26T20:12:37.504Z,30.08
2018-07-26T20:13:37.413Z,30.02
2018-07-26T20:14:36.829Z,29.90
2018-07-26T20:15:37.962Z,29.83
2018-07-26T20:16:36.831Z,29.74
2018-07-26T20:17:36.820Z,29.58
2018-07-26T20:18:36.817Z,29.44
2018-07-26T20:19:36.827Z,29.30
2018-07-26T20:20:36.809Z,29.27
2018-07-26T20:21:36.808Z,29.28
2018-07-26T20:22:36.825Z,29.13
2018-07-26T20:23:36.799Z,29.00
2018-07-26T20:24:36.797Z,28.87
2018-07-26T20:25:36.794Z,28.80
2018-07-26T20:26:36.784Z,28.70
2018-07-26T20:27:36.780Z,28.67
2018-07-26T20:28:36.778Z,28.64
2018-07-26T20:29:36.770Z,28.49
2018-07-26T20:30:36.769Z,28.50
2018-07-26T20:31:36.765Z,28.53
2018-07-26T20:32:36.761Z,28.46
2018-07-26T20:33:36.756Z,28.35
2018-07-26T20:34:37.953Z,28.35
2018-07-26T20:35:36.750Z,28.22
2018-07-26T20:36:37.106Z,28.15
2018-07-26T20:37:36.742Z,28.12
2018-07-26T20:38:36.736Z,28.15
2018-07-26T20:39:36.728Z,28.00
2018-07-26T20:40:36.727Z,28.03
2018-07-26T20:41:36.723Z,27.95
2018-07-26T20:42:36.720Z,27.90
2018-07-26T20:43:36.714Z,27.81
2018-07-26T20:44:36.706Z,27.82
2018-07-26T20:45:36.715Z,27.67
2018-07-26T20:46:36.699Z,27.67
2018-07-26T20:47:36.753Z,27.64
2018-07-26T20:48:36.698Z,27.57
2018-07-26T20:49:36.821Z,27.58
2018-07-26T20:50:36.719Z,27.45
2018-07-26T20:51:36.676Z,27.50
2018-07-26T20:52:36.849Z,27.38
2018-07-26T20:53:36.666Z,27.34
2018-07-26T20:54:36.666Z,27.34
2018-07-26T20:55:36.657Z,27.35
2018-07-26T20:56:36.693Z,27.37
2018-07-26T20:57:36.653Z,27.34
2018-07-26T20:58:36.643Z,27.35
2018-07-26T20:59:36.660Z,27.33
2018-07-26T21:00:36.637Z,27.29
2018-07-26T21:01:36.629Z,27.28
2018-07-26T21:02:36.621Z,27.23
2018-07-26T21:03:36.616Z,27.15
2018-07-26T21:04:36.614Z,27.29
2018-07-26T21:05:36.735Z,27.11
2018-07-26T21:06:36.605Z,27.11
2018-07-26T21:07:36.599Z,27.29
2018-07-26T21:08:37.942Z,27.25
2018-07-26T21:09:36.588Z,27.25
2018-07-26T21:10:36.586Z,27.19
2018-07-26T21:11:36.583Z,27.18
2018-07-26T21:12:37.256Z,27.19
2018-07-26T21:13:36.568Z,27.20
2018-07-26T21:14:36.579Z,27.25
2018-07-26T21:15:36.561Z,27.28
2018-07-26T21:16:36.559Z,27.30
2018-07-26T21:17:36.548Z,27.13
2018-07-26T21:18:36.546Z,27.26
2018-07-26T21:19:36.540Z,27.19
2018-07-26T21:20:36.534Z,27.22
2018-07-26T21:21:36.524Z,27.29
2018-07-26T21:22:36.524Z,27.26
2018-07-26T21:23:37.107Z,27.26
2018-07-26T21:24:36.515Z,27.25
2018-07-26T21:25:36.514Z,27.29
2018-07-26T21:26:36.504Z,27.26
2018-07-26T21:27:36.496Z,27.22
2018-07-26T21:28:36.491Z,27.28
2018-07-26T21:29:36.486Z,27.25
2018-07-26T21:30:36.487Z,27.22
2018-07-26T21:31:36.494Z,27.29
2018-07-26T21:32:36.473Z,27.29
2018-07-26T21:33:36.483Z,27.22
2018-07-26T21:34:36.569Z,27.07
2018-07-26T21:35:36.457Z,27.23
2018-07-26T21:36:36.455Z,27.23
2018-07-26T21:37:36.446Z,27.23
2018-07-26T21:38:36.474Z,27.22
2018-07-26T21:39:36.785Z,27.04
2018-07-26T21:40:36.439Z,27.10
2018-07-26T21:41:36.423Z,27.16
2018-07-26T21:42:36.420Z,27.16
2018-07-26T21:43:36.418Z,27.16
2018-07-26T21:44:36.413Z,27.20
2018-07-26T21:45:36.405Z,27.11
2018-07-26T21:46:36.399Z,27.19
2018-07-26T21:47:36.394Z,27.13
2018-07-26T21:48:36.386Z,27.15
2018-07-26T21:49:36.382Z,27.07
2018-07-26T21:50:36.382Z,27.04
2018-07-26T21:51:36.371Z,27.10
2018-07-26T21:52:36.366Z,27.05
2018-07-26T21:53:36.361Z,27.07
2018-07-26T21:54:36.356Z,26.97
2018-07-26T21:55:36.352Z,26.98
2018-07-26T21:56:36.346Z,26.93
2018-07-26T21:57:36.340Z,27.01
2018-07-26T21:58:36.337Z,26.97
2018-07-26T21:59:36.327Z,26.98
2018-07-26T22:00:36.327Z,26.91
2018-07-26T22:01:36.317Z,26.92
2018-07-26T22:02:36.388Z,27.01
2018-07-26T22:03:36.309Z,26.91
2018-07-26T22:04:36.300Z,26.97
2018-07-26T22:05:36.307Z,26.98
2018-07-26T22:06:36.294Z,27.00
2018-07-26T22:07:36.295Z,27.04
2018-07-26T22:08:36.298Z,27.01
2018-07-26T22:09:36.278Z,27.04
2018-07-26T22:10:36.274Z,27.08
2018-07-26T22:11:36.268Z,27.05
2018-07-26T22:12:36.265Z,27.05
2018-07-26T22:13:36.260Z,27.13
2018-07-26T22:14:36.288Z,27.18
2018-07-26T22:15:36.251Z,27.13
2018-07-26T22:16:36.245Z,27.13
2018-07-26T22:17:36.258Z,27.20
2018-07-26T22:18:36.237Z,27.25
2018-07-26T22:19:36.234Z,27.19
2018-07-26T22:20:36.236Z,27.26
2018-07-26T22:21:36.224Z,27.19
2018-07-26T22:22:36.223Z,27.26
2018-07-26T22:23:36.216Z,27.23
2018-07-26T22:24:36.211Z,27.25
2018-07-26T22:25:36.206Z,27.26
2018-07-26T22:26:36.201Z,27.22
2018-07-26T22:27:36.197Z,27.25
2018-07-26T22:28:36.192Z,27.23
2018-07-26T22:29:36.191Z,27.38
2018-07-26T22:30:36.186Z,27.33
2018-07-26T22:31:36.188Z,27.38
2018-07-26T22:32:36.173Z,27.28
2018-07-26T22:33:36.174Z,27.30
2018-07-26T22:34:36.168Z,27.29
2018-07-26T22:35:36.161Z,27.35
2018-07-26T22:36:36.158Z,27.38
2018-07-26T22:37:36.154Z,27.38
2018-07-26T22:38:36.151Z,27.50
2018-07-26T22:39:36.146Z,27.47
2018-07-26T22:40:36.141Z,27.50
2018-07-26T22:41:36.137Z,27.48
2018-07-26T22:42:36.134Z,27.45
2018-07-26T22:43:36.136Z,27.47
2018-07-26T22:44:36.128Z,27.55
2018-07-26T22:45:36.124Z,27.52
2018-07-26T22:46:36.120Z,27.55
2018-07-26T22:47:36.118Z,27.43
2018-07-26T22:48:36.105Z,27.48
2018-07-26T22:49:36.106Z,27.52
2018-07-26T22:50:36.099Z,27.50
2018-07-26T22:51:36.097Z,27.61
2018-07-26T22:52:36.094Z,27.58
2018-07-26T22:53:36.100Z,27.53
2018-07-26T22:54:36.095Z,27.55
2018-07-26T22:55:36.082Z,27.52
2018-07-26T22:56:36.081Z,27.57
2018-07-26T22:57:36.074Z,27.60
2018-07-26T22:58:36.070Z,27.58
2018-07-26T22:59:36.068Z,27.53
2018-07-26T23:00:36.063Z,27.55
2018-07-26T23:01:36.060Z,27.55
2018-07-26T23:02:36.056Z,27.61
2018-07-26T23:03:36.051Z,27.66
2018-07-26T23:04:36.048Z,27.53
2018-07-26T23:05:36.044Z,27.58
2018-07-26T23:06:36.052Z,27.61
2018-07-26T23:07:36.040Z,27.57
2018-07-26T23:08:36.035Z,27.66
2018-07-26T23:09:36.042Z,27.53
2018-07-26T23:10:36.026Z,27.64
2018-07-26T23:11:36.022Z,27.66
2018-07-26T23:12:36.017Z,27.53
2018-07-26T23:13:36.011Z,27.55
2018-07-26T23:14:36.013Z,27.53
2018-07-26T23:15:36.016Z,27.53
2018-07-26T23:16:36.004Z,27.64
2018-07-26T23:17:35.998Z,27.50
2018-07-26T23:18:35.996Z,27.50
2018-07-26T23:19:35.989Z,27.55
2018-07-26T23:20:35.984Z,27.60
2018-07-26T23:21:35.988Z,27.50
2018-07-26T23:22:35.980Z,27.66
2018-07-26T23:23:35.978Z,27.52
2018-07-26T23:24:35.974Z,27.64
2018-07-26T23:25:35.970Z,27.63
2018-07-26T23:26:35.975Z,27.60
2018-07-26T23:27:35.969Z,27.64
2018-07-26T23:28:35.958Z,27.61
2018-07-26T23:29:35.955Z,27.64
2018-07-26T23:30:35.952Z,27.55
2018-07-26T23:31:35.945Z,27.58
2018-07-26T23:32:35.984Z,27.66
2018-07-26T23:33:35.939Z,27.57
2018-07-26T23:34:35.934Z,27.66
2018-07-26T23:35:35.929Z,27.60
2018-07-26T23:36:35.928Z,27.67
2018-07-26T23:37:35.924Z,27.58
2018-07-26T23:38:35.921Z,27.53
2018-07-26T23:39:35.925Z,27.58
2018-07-26T23:40:35.917Z,27.55
2018-07-26T23:41:35.912Z,27.53
2018-07-26T23:42:35.906Z,27.58
2018-07-26T23:43:35.902Z,27.66
2018-07-26T23:44:35.900Z,27.61
2018-07-26T23:45:35.898Z,27.52
2018-07-26T23:46:35.893Z,27.66
2018-07-26T23:47:35.888Z,27.68
2018-07-26T23:48:35.883Z,27.64
2018-07-26T23:49:35.880Z,27.64
2018-07-26T23:50:35.879Z,27.67
2018-07-26T23:51:35.879Z,27.58
2018-07-26T23:52:35.868Z,27.55
2018-07-26T23:53:35.867Z,27.53
2018-07-26T23:54:35.865Z,27.52
2018-07-26T23:55:35.860Z,27.55
2018-07-26T23:56:35.856Z,27.61
2018-07-26T23:57:35.857Z,27.55
2018-07-26T23:58:35.850Z,27.55
2018-07-26T23:59:35.844Z,27.52
